Pagrindinis puslapis
METAR-TAF:

METAR-TAF

Oro uostai :

Bay City, Teksasas, Jungtinės Amerikos Valstijos

platuma: 28-58-23N, ilguma: 095-51-48W, Aukštis: 14 m

Dabartinis oras

Ataskaita buvo paskelbta 24 minutes, ne 05:35 UTC
Ramus vėjas
Temperatūra 21°C
Drėgmė 100%
Slėgis 1013 hPa
Matomumas: 16.1 km
Giedras dangus

METAR: KBYY 270535Z AUTO 00000KT 10SM CLR 21/21 A2990 RMK AO2 T02220215

Laikas: 00:59 (05:59 UTC)


TAF: trūkstamas

Orai ataskaitas ir orų prognozės (METAR, TAF).

turimą stotys yra geltonos ir raudonos taškus žemėlapyje.

Perkelti pele per norėdami pamatyti stoties vardą.

Tada spustelėkite, norėdami matyti oro stebėjimo ir prognozės.

Norėdami pakeisti žemėlapį: spustelėkite ant žalios mygtukų su juodo kryžiaus žemyn,; žalią mygtuką su brūkšneliu, jei norite nutolinti; arba žalių rodyklių gretimoms žemėlapius.


METAR-TAF: